KBKL/BKL METAR and TAF weather

Enter ICAO airport designator
Station Type Date Time Source
KBKL METAR 2022/01/26 18:53 UTC NOAA

KBKL 261853Z 29008KT 10SM CLR M10/M16 A3043 RMK AO2 SLP316 T11001156


Station Type Date Time Source
KBKL Decoded METAR 2022/01/26 18:53 UTC NOAA

CLEVELAND BURKE LAKEFRONT, OH, United States (KBKL) 41-32N 81-40W 184M
Jan 26, 2022 - 01:53 PM EST / 2022.01.26 1853 UTC
Wind: from the WNW (290 degrees) at 9 MPH (8 KT):0
Visibility: 10 mile(s):0
Sky conditions: clear
Temperature: 14.0 F (-10.0 C)
Windchill: 1 F (-17 C):1
Dew Point: 3.9 F (-15.6 C)
Relative Humidity: 63%
Pressure (altimeter): 30.43 in. Hg (1030 hPa)
ob: KBKL 261853Z 29008KT 10SM CLR M10/M16 A3043 RMK AO2 SLP316 T11001156
cycle: 19

Station Type Date Time Source
KBKL TAF UTC NOAA

Error!

Example: see airport list